Thursday, June 21, 2018, 12:04 PM EDT
Back to Local

KLOM, Philadelphia, Wings Field Airport

Location: Blue Bell, PA, United States Lat: 40.138
Local Time: 12:04 PM EDT (16:04 GMT) Lon: -75.265
Time Zone: US/Eastern Elev: 301 ft

Show me the last for .
Show Decoded

2018-06-21 11:35 METAR KLOM 211535Z AUTO 02003KT 10SM SCT075 BKN080 OVC095 22/18 A2982 RMK AO1 =
2018-06-21 11:15 METAR KLOM 211515Z AUTO 36004KT 10SM SCT080 BKN095 22/18 A2982 RMK AO1 =
2018-06-21 10:55 METAR KLOM 211455Z AUTO 00000KT 10SM SCT023 BKN060 OVC095 21/18 A2982 RMK AO1 =
2018-06-21 10:35 METAR KLOM 211435Z AUTO 00000KT 10SM SCT019 BKN027 OVC060 20/18 A2982 RMK AO1 =
2018-06-21 10:15 METAR KLOM 211415Z AUTO 34004KT 10SM SCT014 BKN021 OVC065 21/18 A2982 RMK AO1 =
2018-06-21 09:55 METAR KLOM 211355Z AUTO 34004KT 10SM SCT012 BKN019 OVC038 20/19 A2982 RMK AO1 =
2018-06-21 09:35 METAR KLOM 211335Z AUTO 00000KT 10SM SCT010 BKN015 OVC070 20/19 A2981 RMK AO1 =
2018-06-21 09:15 METAR KLOM 211315Z AUTO 00000KT 10SM SCT008 BKN013 OVC042 20/19 A2981 RMK AO1 =
2018-06-21 08:55 METAR KLOM 211255Z AUTO 02003KT 10SM BKN008 OVC013 19/19 A2981 RMK AO1 =
2018-06-21 08:35 METAR KLOM 211235Z AUTO 00000KT 10SM OVC008 19/19 A2980 RMK AO1 =
2018-06-21 08:15 METAR KLOM 211215Z AUTO 07003KT 4SM OVC010 18/18 A2979 RMK AO1 =
2018-06-21 07:55 METAR KLOM 211155Z AUTO 00000KT 10SM OVC010 19/19 A2979 RMK AO1 =
2018-06-21 07:35 METAR KLOM 211135Z AUTO 00000KT 7SM SCT008 BKN012 OVC034 18/18 A2979 RMK AO1 =
2018-06-21 07:15 METAR KLOM 211115Z AUTO 00000KT 7SM SCT016 BKN032 OVC040 18/18 A2979 RMK AO1 =
2018-06-21 06:55 METAR KLOM 211055Z AUTO 00000KT 3SM SCT013 SCT019 OVC032 19/18 A2978 RMK AO1 =
2018-06-21 06:35 METAR KLOM 211035Z AUTO 00000KT 10SM OVC034 19/18 A2978 RMK AO1 =
2018-06-21 06:15 METAR KLOM 211015Z AUTO 00000KT 10SM OVC034 20/18 A2978 RMK AO1 =
2018-06-21 05:55 METAR KLOM 210955Z AUTO 00000KT 10SM OVC034 20/18 A2977 RMK AO1 =
2018-06-21 05:35 METAR KLOM 210935Z AUTO 05003KT 10SM OVC034 20/18 A2977 RMK AO1 =
2018-06-21 05:15 METAR KLOM 210915Z AUTO 36003KT 10SM OVC032 20/18 A2976 RMK AO1 =
2018-06-21 04:55 METAR KLOM 210855Z AUTO 00000KT 10SM OVC032 20/18 A2975 RMK AO1 =
2018-06-21 04:35 METAR KLOM 210835Z AUTO 00000KT 10SM OVC032 20/18 A2976 RMK AO1 =
2018-06-21 04:15 METAR KLOM 210815Z AUTO 00000KT 10SM OVC032 20/18 A2975 RMK AO1 =
2018-06-21 03:55 METAR KLOM 210755Z AUTO 00000KT 10SM OVC032 20/18 A2975 RMK AO1 =
2018-06-21 03:35 METAR KLOM 210735Z AUTO 05003KT 10SM BKN032 OVC085 21/18 A2975 RMK AO1 =
2018-06-21 03:15 METAR KLOM 210715Z AUTO 00000KT 10SM SCT032 BKN085 21/18 A2975 RMK AO1 =
2018-06-21 02:55 METAR KLOM 210655Z AUTO 00000KT 10SM BKN034 BKN095 21/18 A2976 RMK AO1 =
2018-06-21 02:35 METAR KLOM 210635Z AUTO 00000KT 10SM BKN032 BKN047 21/18 A2977 RMK AO1 =
2018-06-21 02:15 METAR KLOM 210615Z AUTO 00000KT 10SM BKN032 21/17 A2977 RMK AO1 =
2018-06-21 01:55 METAR KLOM 210555Z AUTO 05003KT 10SM OVC032 22/18 A2977 RMK AO1 =
2018-06-21 01:35 METAR KLOM 210535Z AUTO 00000KT 10SM OVC032 22/18 A2977 RMK AO1 =
2018-06-21 01:15 METAR KLOM 210515Z AUTO 00000KT 10SM OVC034 22/18 A2977 RMK AO1 =
2018-06-21 00:55 METAR KLOM 210455Z AUTO 00000KT 10SM OVC038 22/19 A2978 RMK AO1 =
2018-06-21 00:35 METAR KLOM 210435Z AUTO 00000KT 10SM OVC038 21/19 A2978 RMK AO1 =
2018-06-21 00:15 METAR KLOM 210415Z AUTO 00000KT 10SM BKN042 BKN060 22/19 A2979 RMK AO1 =
2018-06-20 23:55 METAR KLOM 210355Z AUTO 00000KT 10SM OVC042 22/18 A2979 RMK AO1 =
2018-06-20 23:35 METAR KLOM 210335Z AUTO 00000KT 10SM OVC042 22/19 A2979 RMK AO1 =
2018-06-20 23:15 METAR KLOM 210315Z AUTO 00000KT 10SM BKN042 BKN048 OVC080 22/18 A2979 RMK AO1 =
2018-06-20 22:55 METAR KLOM 210255Z AUTO 00000KT 10SM OVC044 22/19 A2980 RMK AO1 =
2018-06-20 22:35 METAR KLOM 210235Z AUTO 00000KT 10SM OVC044 22/19 A2980 RMK AO1 =
2018-06-20 22:15 METAR KLOM 210215Z AUTO 00000KT 10SM OVC042 23/20 A2980 RMK AO1 =
2018-06-20 21:55 METAR KLOM 210155Z AUTO 00000KT 10SM OVC044 22/18 A2979 RMK AO1 =
2018-06-20 21:35 METAR KLOM 210135Z AUTO 00000KT 10SM BKN048 OVC065 22/20 A2979 RMK AO1 =
2018-06-20 21:15 METAR KLOM 210115Z AUTO 00000KT 10SM BKN050 BKN055 OVC075 23/18 A2979 RMK AO1 =
2018-06-20 20:55 METAR KLOM 210055Z AUTO 00000KT 10SM SCT075 OVC085 23/17 A2979 RMK AO1 =
2018-06-20 20:35 METAR KLOM 210035Z AUTO 00000KT 10SM SCT060 SCT075 OVC085 23/19 A2979 RMK AO1 =
2018-06-20 20:15 METAR KLOM 210015Z AUTO 00000KT 10SM SCT060 SCT070 OVC085 24/18 A2979 RMK AO1 =
2018-06-20 19:55 METAR KLOM 202355Z AUTO 00000KT 10SM BKN055 OVC070 25/17 A2979 RMK AO1 =
2018-06-20 19:35 METAR KLOM 202335Z AUTO 00000KT 10SM BKN055 OVC070 25/17 A2980 RMK AO1 =
2018-06-20 19:15 METAR KLOM 202315Z AUTO 00000KT 10SM OVC070 26/17 A2979 RMK AO1 =
2018-06-20 18:55 METAR KLOM 202255Z AUTO 00000KT 10SM BKN070 OVC100 26/17 A2979 RMK AO1 =
2018-06-20 18:35 METAR KLOM 202235Z AUTO 00000KT 10SM BKN070 OVC080 26/17 A2979 RMK AO1 =
2018-06-20 18:15 METAR KLOM 202215Z AUTO 00000KT 10SM SCT050 OVC060 26/17 A2979 RMK AO1 =
2018-06-20 17:55 METAR KLOM 202155Z AUTO 32003KT 10SM SCT050 BKN070 OVC080 27/17 A2979 RMK AO1 =
2018-06-20 17:35 METAR KLOM 202135Z AUTO 00000KT 10SM BKN070 BKN080 27/17 A2980 RMK AO1 =
2018-06-20 17:15 METAR KLOM 202115Z AUTO 00000KT 10SM SCT055 BKN070 OVC080 26/17 A2980 RMK AO1 =
2018-06-20 16:55 METAR KLOM 202055Z AUTO 30005KT 10SM BKN070 27/17 A2980 RMK AO1 =
2018-06-20 16:35 METAR KLOM 202035Z AUTO 00000KT 10SM BKN080 BKN090 27/16 A2980 RMK AO1 =
2018-06-20 16:15 METAR KLOM 202015Z AUTO 00000KT 10SM OVC090 27/16 A2981 RMK AO1 =
2018-06-20 15:55 METAR KLOM 201955Z AUTO 00000KT 10SM BKN090 27/16 A2982 RMK AO1 =
2018-06-20 15:35 METAR KLOM 201935Z AUTO 00000KT 10SM OVC090 28/16 A2982 RMK AO1 =
2018-06-20 15:15 METAR KLOM 201915Z AUTO 29005KT 10SM BKN090 BKN110 28/16 A2983 RMK AO1 =
2018-06-20 14:55 METAR KLOM 201855Z AUTO 00000KT 10SM OVC110 28/15 A2983 RMK AO1 =
2018-06-20 14:35 METAR KLOM 201835Z AUTO 29005KT 10SM SCT090 BKN120 28/15 A2984 RMK AO1 =
2018-06-20 14:15 METAR KLOM 201815Z AUTO 28004KT 10SM SCT110 28/15 A2984 RMK AO1 =
2018-06-20 13:55 METAR KLOM 201755Z AUTO 00000KT 10SM CLR 28/15 A2984 RMK AO1 =
2018-06-20 13:35 METAR KLOM 201735Z AUTO 19003KT 10SM CLR 27/15 A2984 RMK AO1 =
2018-06-20 13:15 METAR KLOM 201715Z AUTO 28004KT 10SM CLR 28/15 A2985 RMK AO1 =
2018-06-20 12:55 METAR KLOM 201655Z AUTO 18004KT 10SM CLR 28/15 A2986 RMK AO1 =
2018-06-20 12:35 METAR KLOM 201635Z AUTO 29003KT 10SM CLR 28/15 A2986 RMK AO1 =
2018-06-20 12:15 METAR KLOM 201615Z AUTO 00000KT 10SM CLR 27/17 A2987 RMK AO1 =

Support USWX by starting your Amazon purchase here.